Time;durP1;ratioP1;P1;durP2;ratioP2;P2;SDS_P1;SDS_P2;PMS_P1;PMS_P2;Temp;Humidity;BMP_temperature;BMP_pressure;BME280_temperature;BME280_humidity;BME280_pressure;Samples;Min_cycle;Max_cycle;Signal;HPM_P1;HPM_P2
2023/09/07 00:00:48;;;;;;;0.22;0.22;;;21.70;86.00;;;;;;5043179;28;20025;-74
2023/09/07 00:03:14;;;;;;;0.00;0.00;;;21.70;85.40;;;;;;5041514;28;20460;-75
2023/09/07 00:05:40;;;;;;;0.00;0.00;;;21.60;87.00;;;;;;5043556;28;20033;-74
2023/09/07 00:08:06;;;;;;;0.00;0.00;;;21.60;88.10;;;;;;5042891;28;20106;-75
2023/09/07 00:10:35;;;;;;;0.00;0.00;;;21.50;88.50;;;;;;5042944;28;20049;-73
2023/09/07 00:13:02;;;;;;;0.00;0.00;;;21.50;89.40;;;;;;5042985;28;20036;-74
2023/09/07 00:15:28;;;;;;;0.00;0.00;;;21.40;90.00;;;;;;5043888;28;20009;-74
2023/09/07 00:17:55;;;;;;;;;;;21.40;90.70;;;;;;5043428;28;20029;-74
2023/09/07 00:20:21;;;;;;;0.00;0.00;;;21.30;91.00;;;;;;5042615;28;19908;-74
2023/09/07 00:22:47;;;;;;;0.00;0.00;;;21.30;91.30;;;;;;5042030;28;20029;-74
2023/09/07 00:25:13;;;;;;;0.00;0.00;;;21.30;91.30;;;;;;5043301;28;20041;-74
2023/09/07 00:27:39;;;;;;;0.00;0.00;;;21.30;91.50;;;;;;5036361;28;20021;-75
2023/09/07 00:30:05;;;;;;;0.00;0.00;;;21.40;91.20;;;;;;5042966;28;20040;-75
2023/09/07 00:32:36;;;;;;;0.00;0.00;;;21.30;91.60;;;;;;5054646;28;20025;-75
2023/09/07 00:35:02;;;;;;;0.45;0.45;;;21.30;91.70;;;;;;5041948;28;20044;-74
2023/09/07 00:37:28;;;;;;;0.00;0.00;;;21.20;91.60;;;;;;5042749;28;20032;-74
2023/09/07 00:39:54;;;;;;;0.00;0.00;;;21.10;92.00;;;;;;5043088;28;20774;-74
2023/09/07 00:42:19;;;;;;;0.00;0.00;;;21.10;92.00;;;;;;5042160;28;20124;-75
2023/09/07 00:44:45;;;;;;;0.00;0.00;;;21.00;92.40;;;;;;5043030;28;20033;-75
2023/09/07 00:47:11;;;;;;;0.00;0.00;;;21.10;92.50;;;;;;5042396;28;20483;-75
2023/09/07 00:49:37;;;;;;;0.00;0.00;;;21.00;92.90;;;;;;5042128;28;20629;-74
2023/09/07 00:52:04;;;;;;;;;;;20.90;93.00;;;;;;5040307;28;20025;-74
2023/09/07 00:54:30;;;;;;;0.00;0.00;;;20.90;93.20;;;;;;5042119;28;19912;-75
2023/09/07 00:56:56;;;;;;;0.00;0.00;;;20.90;93.30;;;;;;5042862;28;20438;-75
2023/09/07 00:59:22;;;;;;;0.00;0.00;;;20.90;93.40;;;;;;5040612;28;20052;-73
2023/09/07 01:01:49;;;;;;;3.28;2.20;;;20.80;93.70;;;;;;5041636;28;20025;-75
2023/09/07 01:04:15;;;;;;;0.00;0.00;;;20.70;94.00;;;;;;5041769;28;20056;-74
2023/09/07 01:06:45;;;;;;;0.00;0.00;;;20.70;94.10;;;;;;5042897;28;20037;-75
2023/09/07 01:09:15;;;;;;;0.00;0.00;;;20.70;94.10;;;;;;5041557;28;20699;-74
2023/09/07 01:11:40;;;;;;;0.00;0.00;;;20.60;94.30;;;;;;5038836;28;20503;-74
2023/09/07 01:14:06;;;;;;;0.00;0.00;;;20.50;94.50;;;;;;5041891;28;20037;-76
2023/09/07 01:16:38;;;;;;;0.00;0.00;;;20.50;94.70;;;;;;5041961;28;20520;-74
2023/09/07 01:19:06;;;;;;;0.00;0.00;;;20.30;95.00;;;;;;5041575;28;20048;-75
2023/09/07 01:21:35;;;;;;;0.00;0.00;;;20.30;95.20;;;;;;5036326;28;20033;-75
2023/09/07 01:24:04;;;;;;;0.00;0.00;;;20.20;95.60;;;;;;5040206;28;20021;-76
2023/09/07 01:26:30;;;;;;;0.00;0.00;;;20.20;95.70;;;;;;5037649;28;20115;-74
2023/09/07 01:28:56;;;;;;;0.07;0.07;;;20.20;95.70;;;;;;5042491;28;20108;-75
2023/09/07 01:31:21;;;;;;;0.00;0.00;;;20.20;95.70;;;;;;5041808;28;20029;-74
2023/09/07 01:33:47;;;;;;;0.00;0.00;;;20.20;95.60;;;;;;5041268;28;20059;-74
2023/09/07 01:36:13;;;;;;;0.00;0.00;;;20.20;95.50;;;;;;5041895;28;20115;-74
2023/09/07 01:38:38;;;;;;;0.00;0.00;;;20.20;95.50;;;;;;5041834;28;20151;-75
2023/09/07 01:41:04;;;;;;;0.10;0.10;;;20.10;95.70;;;;;;5042229;28;20075;-75
2023/09/07 01:43:30;;;;;;;0.00;0.00;;;20.10;95.70;;;;;;5042003;28;20392;-74
2023/09/07 01:45:55;;;;;;;0.00;0.00;;;20.10;95.60;;;;;;5044366;28;20048;-73
2023/09/07 01:48:21;;;;;;;0.00;0.00;;;20.10;95.60;;;;;;5045979;28;20025;-75
2023/09/07 01:50:47;;;;;;;0.00;0.00;;;20.00;95.90;;;;;;5045862;28;20072;-74
2023/09/07 01:53:12;;;;;;;0.20;0.20;;;19.90;96.20;;;;;;5046312;28;20033;-75
2023/09/07 01:55:38;;;;;;;0.00;0.00;;;19.90;96.40;;;;;;5046650;28;20036;-74
2023/09/07 01:58:04;;;;;;;0.00;0.00;;;19.80;96.80;;;;;;5054486;28;20025;-75
2023/09/07 02:00:29;;;;;;;0.00;0.00;;;19.80;97.00;;;;;;5046257;28;20114;-75
2023/09/07 02:02:55;;;;;;;0.03;0.03;;;19.70;97.20;;;;;;5045378;28;20148;-75
2023/09/07 02:05:21;;;;;;;0.00;0.00;;;19.70;97.40;;;;;;5046897;28;20549;-74
2023/09/07 02:07:49;;;;;;;0.00;0.00;;;19.70;97.50;;;;;;5045275;28;20112;-74
2023/09/07 02:10:15;;;;;;;0.00;0.00;;;19.60;97.80;;;;;;5045522;28;20191;-75
2023/09/07 02:12:41;;;;;;;0.23;0.23;;;19.60;98.00;;;;;;5041503;28;20624;-74
2023/09/07 02:15:06;;;;;;;1.30;0.37;;;19.50;98.20;;;;;;5042924;28;20022;-75
2023/09/07 02:17:32;;;;;;;0.00;0.00;;;19.50;98.20;;;;;;5045234;28;20029;-74
2023/09/07 02:19:58;;;;;;;0.00;0.00;;;19.50;98.10;;;;;;5049581;28;20021;-74
2023/09/07 02:22:24;;;;;;;0.00;0.00;;;19.50;98.50;;;;;;5044726;28;20036;-74
2023/09/07 02:24:49;;;;;;;3.73;2.40;;;19.50;98.20;;;;;;5045900;28;20037;-74
2023/09/07 02:27:15;;;;;;;0.00;0.00;;;19.50;98.20;;;;;;5044503;28;20112;-74
2023/09/07 02:29:41;;;;;;;2.00;1.80;;;19.40;98.50;;;;;;5042481;28;20029;-74
2023/09/07 02:32:07;;;;;;;0.00;0.00;;;19.50;98.40;;;;;;5040992;28;20041;-74
2023/09/07 02:34:36;;;;;;;0.00;0.00;;;19.40;98.40;;;;;;5042650;28;20528;-75
2023/09/07 02:37:02;;;;;;;0.00;0.00;;;19.40;98.50;;;;;;5050017;28;20029;-74
2023/09/07 02:39:28;;;;;;;0.00;0.00;;;19.30;98.40;;;;;;5045703;28;20032;-73
2023/09/07 02:41:54;;;;;;;0.00;0.00;;;19.40;98.40;;;;;;5046177;28;20123;-74
2023/09/07 02:44:20;;;;;;;0.00;0.00;;;19.30;98.50;;;;;;5037816;28;20035;-74
2023/09/07 02:46:45;;;;;;;0.00;0.00;;;19.30;98.60;;;;;;5043439;28;20021;-74
2023/09/07 02:49:11;;;;;;;0.00;0.00;;;19.30;98.70;;;;;;5044196;28;20374;-74
2023/09/07 02:51:37;;;;;;;0.00;0.00;;;19.30;98.70;;;;;;5044930;28;20044;-73
2023/09/07 02:54:03;;;;;;;0.00;0.00;;;19.30;98.60;;;;;;5044820;28;20019;-73
2023/09/07 02:56:29;;;;;;;0.00;0.00;;;19.30;98.50;;;;;;5048135;28;20025;-73
2023/09/07 02:58:55;;;;;;;0.00;0.00;;;19.30;98.30;;;;;;5043180;28;20040;-74
2023/09/07 03:01:22;;;;;;;0.00;0.00;;;19.30;98.00;;;;;;5042982;28;20123;-74
2023/09/07 03:03:48;;;;;;;0.00;0.00;;;19.30;97.70;;;;;;5044888;28;20029;-74
2023/09/07 03:06:16;;;;;;;0.00;0.00;;;19.30;97.90;;;;;;5044318;28;20029;-73
2023/09/07 03:08:42;;;;;;;0.05;0.05;;;19.20;98.00;;;;;;5044992;28;20025;-73
2023/09/07 03:11:09;;;;;;;0.00;0.00;;;19.10;98.10;;;;;;5044625;28;20131;-73
2023/09/07 03:13:35;;;;;;;1.70;1.60;;;19.10;98.10;;;;;;5045171;28;20593;-74
2023/09/07 03:16:03;;;;;;;0.00;0.00;;;19.00;98.40;;;;;;5045650;28;20112;-73
2023/09/07 03:18:28;;;;;;;0.00;0.00;;;18.90;98.60;;;;;;5044036;28;20109;-73
2023/09/07 03:20:55;;;;;;;0.33;0.33;;;18.90;98.70;;;;;;5044224;28;20033;-74
2023/09/07 03:23:22;;;;;;;0.38;0.38;;;18.90;98.90;;;;;;5044500;28;20035;-73
2023/09/07 03:25:48;;;;;;;0.00;0.00;;;18.90;98.90;;;;;;5044259;28;20078;-75
2023/09/07 03:28:14;;;;;;;0.00;0.00;;;18.80;99.00;;;;;;5042764;28;20622;-74
2023/09/07 03:30:40;;;;;;;0.00;0.00;;;18.80;99.20;;;;;;5044676;28;20039;-74
2023/09/07 03:33:06;;;;;;;0.00;0.00;;;18.70;99.40;;;;;;5049603;28;20050;-74
2023/09/07 03:35:32;;;;;;;0.00;0.00;;;18.70;99.80;;;;;;5045005;28;20053;-74
2023/09/07 03:37:58;;;;;;;0.30;0.30;;;18.60;99.90;;;;;;5046269;28;20032;-74
2023/09/07 03:40:24;;;;;;;0.00;0.00;;;18.60;99.90;;;;;;5044439;28;20471;-74
2023/09/07 03:42:50;;;;;;;0.00;0.00;;;18.50;99.90;;;;;;5042681;28;20167;-75
2023/09/07 03:45:16;;;;;;;0.00;0.00;;;18.40;99.90;;;;;;5043799;28;20025;-74
2023/09/07 03:47:42;;;;;;;0.00;0.00;;;18.30;99.90;;;;;;5043957;28;20040;-75
2023/09/07 03:50:08;;;;;;;0.00;0.00;;;18.30;99.90;;;;;;5043612;28;20041;-75
2023/09/07 03:52:34;;;;;;;1.40;1.30;;;18.30;99.90;;;;;;5045865;28;21120;-74
2023/09/07 03:55:00;;;;;;;0.00;0.00;;;18.20;99.90;;;;;;5043959;28;20040;-74
2023/09/07 03:57:27;;;;;;;0.10;0.10;;;18.20;99.90;;;;;;5042260;28;20039;-75
2023/09/07 03:59:55;;;;;;;0.10;0.10;;;18.20;99.90;;;;;;5043857;28;20029;-74
2023/09/07 04:02:21;;;;;;;0.00;0.00;;;18.20;99.90;;;;;;5043322;28;20032;-74
2023/09/07 04:04:51;;;;;;;0.08;0.08;;;18.20;99.90;;;;;;5043169;28;20080;-75
2023/09/07 04:07:17;;;;;;;0.00;0.00;;;18.30;99.90;;;;;;5042052;28;20037;-74
2023/09/07 04:09:43;;;;;;;0.00;0.00;;;18.20;99.90;;;;;;5043207;28;20036;-74
2023/09/07 04:12:09;;;;;;;;;;;18.10;99.90;;;;;;5044137;28;20029;-74
2023/09/07 04:14:35;;;;;;;0.00;0.00;;;18.00;99.90;;;;;;5043861;28;19915;-74
2023/09/07 04:17:01;;;;;;;0.00;0.00;;;17.90;99.90;;;;;;5046780;28;20564;-74
2023/09/07 04:19:27;;;;;;;0.00;0.00;;;18.00;99.90;;;;;;5046172;28;20040;-74
2023/09/07 04:21:53;;;;;;;0.57;0.20;;;18.10;99.90;;;;;;5045279;28;20020;-74
2023/09/07 04:24:18;;;;;;;0.00;0.00;;;18.00;99.90;;;;;;5043418;28;20025;-74
2023/09/07 04:26:44;;;;;;;0.20;0.20;;;17.90;99.90;;;;;;5040102;28;20028;-75
2023/09/07 04:29:11;;;;;;;1.30;1.27;;;17.90;99.90;;;;;;5044637;28;20021;-74
2023/09/07 04:31:37;;;;;;;0.00;0.00;;;17.80;99.90;;;;;;5043572;28;20429;-74
2023/09/07 04:34:03;;;;;;;0.00;0.00;;;17.80;99.90;;;;;;5042476;28;20045;-74
2023/09/07 04:36:28;;;;;;;0.00;0.00;;;17.80;99.90;;;;;;5043321;28;20116;-74
2023/09/07 04:38:54;;;;;;;0.10;0.10;;;17.70;99.90;;;;;;5042572;28;20033;-74
2023/09/07 04:41:20;;;;;;;0.00;0.00;;;17.70;99.90;;;;;;5040690;28;20091;-74
2023/09/07 04:43:45;;;;;;;0.03;0.03;;;17.70;99.90;;;;;;5041454;28;20029;-73
2023/09/07 04:46:13;;;;;;;0.00;0.00;;;17.60;99.90;;;;;;5052635;28;20033;-73
2023/09/07 04:48:41;;;;;;;0.00;0.00;;;17.70;99.90;;;;;;5042033;28;20032;-73
2023/09/07 04:51:07;;;;;;;0.00;0.00;;;17.70;99.90;;;;;;5041755;28;20017;-74
2023/09/07 04:53:36;;;;;;;0.22;0.22;;;17.70;99.90;;;;;;5042142;28;20036;-72
2023/09/07 04:56:03;;;;;;;0.00;0.00;;;17.70;99.90;;;;;;5041302;28;20138;-72
2023/09/07 04:58:29;;;;;;;0.00;0.00;;;17.70;99.90;;;;;;5050049;28;20024;-74
2023/09/07 05:01:02;;;;;;;0.00;0.00;;;17.60;99.90;;;;;;5042012;28;20080;-73
2023/09/07 05:03:27;;;;;;;0.00;0.00;;;17.60;99.90;;;;;;5046397;28;20024;-72
2023/09/07 05:05:53;;;;;;;0.10;0.10;;;17.50;99.90;;;;;;5042369;28;20404;-72
2023/09/07 05:08:20;;;;;;;0.00;0.00;;;17.50;99.90;;;;;;5041062;28;20029;-74
2023/09/07 05:10:46;;;;;;;0.00;0.00;;;17.40;99.90;;;;;;5041516;28;20036;-74
2023/09/07 05:13:11;;;;;;;0.13;0.13;;;17.30;99.90;;;;;;5038293;28;20507;-74
2023/09/07 05:15:37;;;;;;;0.00;0.00;;;17.40;99.90;;;;;;5037997;28;20286;-73
2023/09/07 05:18:03;;;;;;;0.00;0.00;;;17.30;99.90;;;;;;5041327;28;20025;-72
2023/09/07 05:20:31;;;;;;;0.00;0.00;;;17.30;99.90;;;;;;5038182;28;20112;-76
2023/09/07 05:22:59;;;;;;;0.00;0.00;;;17.20;99.90;;;;;;5039348;28;20017;-76
2023/09/07 05:25:25;;;;;;;0.00;0.00;;;17.20;99.90;;;;;;5039665;28;20025;-75
2023/09/07 05:27:51;;;;;;;0.00;0.00;;;17.30;99.90;;;;;;5037225;28;20558;-75
2023/09/07 05:30:16;;;;;;;0.00;0.00;;;17.20;99.90;;;;;;5038357;28;20045;-75
2023/09/07 05:32:42;;;;;;;0.00;0.00;;;17.20;99.90;;;;;;5041053;28;20060;-75
2023/09/07 05:35:10;;;;;;;0.00;0.00;;;17.20;99.90;;;;;;5041070;28;20057;-75
2023/09/07 05:37:35;;;;;;;0.00;0.00;;;17.40;99.90;;;;;;5040459;28;20782;-75
2023/09/07 05:40:03;;;;;;;4.40;3.50;;;17.50;99.90;;;;;;5040111;28;20025;-76
2023/09/07 05:42:29;;;;;;;0.00;0.00;;;17.90;99.90;;;;;;5035981;28;20029;-74
2023/09/07 05:44:54;;;;;;;3.77;3.37;;;18.10;99.90;;;;;;5040526;28;20036;-76
2023/09/07 05:47:20;;;;;;;0.33;0.33;;;18.30;99.90;;;;;;5038060;28;20024;-75
2023/09/07 05:49:46;;;;;;;0.00;0.00;;;18.50;99.90;;;;;;5033972;28;20025;-73
2023/09/07 05:52:11;;;;;;;0.00;0.00;;;19.30;98.40;;;;;;5035842;28;20041;-73
2023/09/07 05:54:37;;;;;;;0.00;0.00;;;19.60;97.20;;;;;;5030878;28;20021;-74
2023/09/07 05:57:03;;;;;;;0.10;0.10;;;19.90;96.20;;;;;;5041184;28;20032;-72
2023/09/07 05:59:28;;;;;;;0.00;0.00;;;19.80;96.50;;;;;;5041078;28;20116;-71
2023/09/07 06:01:54;;;;;;;0.00;0.00;;;19.70;97.10;;;;;;5040395;28;20037;-74
2023/09/07 06:04:20;;;;;;;0.00;0.00;;;19.80;96.70;;;;;;5040285;28;20025;-73
2023/09/07 06:06:46;;;;;;;0.00;0.00;;;19.60;97.40;;;;;;5041395;28;20025;-72
2023/09/07 06:09:12;;;;;;;0.00;0.00;;;19.60;97.60;;;;;;5041396;28;20017;-72
2023/09/07 06:11:38;;;;;;;0.00;0.00;;;20.10;96.40;;;;;;5041703;28;20083;-72
2023/09/07 06:14:03;;;;;;;0.00;0.00;;;20.70;94.80;;;;;;5038306;28;20151;-73
2023/09/07 06:16:29;;;;;;;0.00;0.00;;;21.20;93.40;;;;;;5041630;28;20039;-74
2023/09/07 06:18:55;;;;;;;0.00;0.00;;;21.70;92.20;;;;;;5041065;28;20662;-71
2023/09/07 06:21:20;;;;;;;1.00;0.87;;;22.00;91.40;;;;;;5038540;28;20059;-72
2023/09/07 06:23:47;;;;;;;0.00;0.00;;;22.00;91.20;;;;;;5028198;28;20018;-72
2023/09/07 06:26:14;;;;;;;;;;;22.10;90.70;;;;;;5042127;28;20017;-71
2023/09/07 06:28:39;;;;;;;0.00;0.00;;;22.20;90.10;;;;;;5042128;28;19905;-71
2023/09/07 06:31:05;;;;;;;0.00;0.00;;;22.30;88.80;;;;;;5042059;28;20467;-72
2023/09/07 06:33:31;;;;;;;0.00;0.00;;;22.50;87.70;;;;;;5044195;28;20056;-74
2023/09/07 06:36:01;;;;;;;0.00;0.00;;;22.80;86.10;;;;;;5045264;28;20049;-74
2023/09/07 06:38:26;;;;;;;0.00;0.00;;;23.00;84.50;;;;;;5045261;28;20504;-72
2023/09/07 06:40:52;;;;;;;0.00;0.00;;;23.50;81.90;;;;;;5045292;28;20040;-72
2023/09/07 06:43:17;;;;;;;0.00;0.00;;;24.00;80.20;;;;;;5045187;28;20024;-72
2023/09/07 06:45:44;;;;;;;0.00;0.00;;;23.90;79.50;;;;;;5044782;28;20025;-72
2023/09/07 06:48:09;;;;;;;0.00;0.00;;;24.60;77.40;;;;;;5044723;28;20500;-73
2023/09/07 06:50:35;;;;;;;0.00;0.00;;;25.00;72.90;;;;;;5044662;28;20094;-73
2023/09/07 06:53:01;;;;;;;0.00;0.00;;;25.30;71.10;;;;;;5044796;28;20029;-72
2023/09/07 06:55:26;;;;;;;0.00;0.00;;;25.60;70.50;;;;;;5045160;28;20740;-74
2023/09/07 06:57:54;;;;;;;0.00;0.00;;;25.70;68.40;;;;;;5044996;28;20542;-72
2023/09/07 07:00:20;;;;;;;0.00;0.00;;;25.60;69.00;;;;;;5044495;28;20065;-73
2023/09/07 07:02:45;;;;;;;0.00;0.00;;;26.20;68.30;;;;;;5044320;28;20128;-73
2023/09/07 07:05:11;;;;;;;0.00;0.00;;;26.80;66.70;;;;;;5044257;28;20029;-71
2023/09/07 07:07:37;;;;;;;0.00;0.00;;;26.90;65.80;;;;;;5044551;28;20029;-72
2023/09/07 07:10:03;;;;;;;0.00;0.00;;;27.20;65.30;;;;;;5044583;28;20025;-72
2023/09/07 07:12:28;;;;;;;;;;;27.50;63.40;;;;;;5044631;28;20028;-72
2023/09/07 07:14:55;;;;;;;0.00;0.00;;;27.40;63.10;;;;;;5044311;28;20295;-73
2023/09/07 07:17:21;;;;;;;;;;;27.30;62.00;;;;;;5044411;28;20031;-72
2023/09/07 07:19:47;;;;;;;0.00;0.00;;;27.40;61.50;;;;;;5044191;28;20121;-72
2023/09/07 07:22:13;;;;;;;0.00;0.00;;;28.20;60.90;;;;;;5044153;28;20514;-71
2023/09/07 07:24:40;;;;;;;0.00;0.00;;;28.10;59.40;;;;;;5043718;28;20032;-73
2023/09/07 07:27:05;;;;;;;0.00;0.00;;;28.40;59.40;;;;;;5044177;28;20559;-71
2023/09/07 07:29:31;;;;;;;0.00;0.00;;;28.80;59.10;;;;;;5044906;28;20032;-72
2023/09/07 07:31:57;;;;;;;0.00;0.00;;;29.50;58.90;;;;;;5043896;28;20712;-72
2023/09/07 07:34:22;;;;;;;0.10;0.10;;;29.40;59.40;;;;;;5044163;28;20201;-71
2023/09/07 07:36:48;;;;;;;0.00;0.00;;;30.10;58.60;;;;;;5043843;28;20107;-71
2023/09/07 07:39:15;;;;;;;0.00;0.00;;;30.20;56.90;;;;;;5044240;28;20033;-72
2023/09/07 07:41:41;;;;;;;0.00;0.00;;;30.50;57.00;;;;;;5043739;28;20530;-72
2023/09/07 07:44:07;;;;;;;0.00;0.00;;;30.90;55.50;;;;;;5043475;28;20108;-74
2023/09/07 07:46:32;;;;;;;;;;;30.60;54.10;;;;;;5044072;28;20032;-72
2023/09/07 07:48:58;;;;;;;0.00;0.00;;;31.10;53.90;;;;;;5043814;28;20703;-73
2023/09/07 07:51:24;;;;;;;;;;;31.40;53.60;;;;;;5044289;28;20064;-72
2023/09/07 07:53:49;;;;;;;0.00;0.00;;;31.90;52.90;;;;;;5044268;28;19915;-74
2023/09/07 07:56:16;;;;;;;;;;;32.60;52.90;;;;;;5043915;28;20025;-72
2023/09/07 07:58:41;;;;;;;0.00;0.00;;;32.10;53.20;;;;;;5043815;28;19909;-71
2023/09/07 08:01:18;;;;;;;0.00;0.00;;;32.70;51.80;;;;;;5042430;28;20041;-72
2023/09/07 08:03:43;;;;;;;0.00;0.00;;;32.80;49.40;;;;;;5043315;28;20634;-72
2023/09/07 08:06:10;;;;;;;0.25;0.25;;;33.40;50.10;;;;;;5043154;28;20028;-72
2023/09/07 08:08:36;;;;;;;0.00;0.00;;;33.30;50.00;;;;;;5044054;28;20036;-72
2023/09/07 08:11:05;;;;;;;0.00;0.00;;;33.70;49.50;;;;;;5043637;28;20028;-72
2023/09/07 08:13:33;;;;;;;0.00;0.00;;;33.40;48.00;;;;;;5043195;28;20028;-73
2023/09/07 08:16:00;;;;;;;0.00;0.00;;;33.90;48.20;;;;;;5043607;28;20110;-71
2023/09/07 08:18:25;;;;;;;0.00;0.00;;;34.30;46.10;;;;;;5043134;28;20064;-74
2023/09/07 08:20:51;;;;;;;0.00;0.00;;;34.70;48.30;;;;;;5043090;28;20807;-72
2023/09/07 08:23:17;;;;;;;0.00;0.00;;;34.70;46.20;;;;;;5043337;28;20025;-72
2023/09/07 08:25:46;;;;;;;0.00;0.00;;;34.70;44.90;;;;;;5033561;28;20032;-72
2023/09/07 08:28:12;;;;;;;0.00;0.00;;;34.00;45.00;;;;;;5043606;28;20033;-72
2023/09/07 08:30:38;;;;;;;0.00;0.00;;;34.10;46.10;;;;;;5042908;28;20106;-71
2023/09/07 08:33:05;;;;;;;0.00;0.00;;;35.20;45.80;;;;;;5042898;28;20029;-72
2023/09/07 08:35:35;;;;;;;0.00;0.00;;;35.20;45.10;;;;;;5042689;28;20167;-72
2023/09/07 08:38:05;;;;;;;0.00;0.00;;;35.30;45.40;;;;;;5043274;28;20052;-72
2023/09/07 08:40:34;;;;;;;0.00;0.00;;;35.30;45.20;;;;;;5042829;28;20816;-74
2023/09/07 08:43:03;;;;;;;0.00;0.00;;;35.50;45.00;;;;;;5043253;28;20074;-74
2023/09/07 08:45:31;;;;;;;0.00;0.00;;;36.30;44.30;;;;;;5043703;28;20481;-72
2023/09/07 08:47:58;;;;;;;0.00;0.00;;;36.10;44.70;;;;;;5042465;28;20059;-73
2023/09/07 08:50:24;;;;;;;0.00;0.00;;;36.40;44.50;;;;;;5042963;28;20695;-71
2023/09/07 08:52:52;;;;;;;0.00;0.00;;;36.40;43.90;;;;;;5042827;28;20496;-71
2023/09/07 08:55:19;;;;;;;0.00;0.00;;;36.10;44.20;;;;;;5041725;28;20048;-71
2023/09/07 08:57:45;;;;;;;0.00;0.00;;;36.60;44.00;;;;;;5042417;28;20033;-72
2023/09/07 09:00:16;;;;;;;0.00;0.00;;;37.70;43.00;;;;;;5042703;28;20025;-73
2023/09/07 09:02:42;;;;;;;0.00;0.00;;;37.60;42.30;;;;;;5042309;28;20035;-72
2023/09/07 09:05:14;;;;;;;0.00;0.00;;;37.10;41.10;;;;;;5042821;28;20831;-73
2023/09/07 09:07:40;;;;;;;0.00;0.00;;;37.30;41.40;;;;;;5041131;28;20060;-72
2023/09/07 09:10:07;;;;;;;0.00;0.00;;;36.70;40.70;;;;;;5042932;28;20881;-73
2023/09/07 09:12:33;;;;;;;0.00;0.00;;;36.20;41.70;;;;;;5044526;28;20025;-73
2023/09/07 09:15:03;;;;;;;0.00;0.00;;;35.70;42.00;;;;;;5042898;28;20019;-72
2023/09/07 09:17:28;;;;;;;0.00;0.00;;;36.20;41.60;;;;;;5042268;28;20475;-72
2023/09/07 09:19:54;;;;;;;0.00;0.00;;;35.00;42.70;;;;;;5041278;28;20029;-73
2023/09/07 09:22:20;;;;;;;0.00;0.00;;;35.70;40.90;;;;;;5042526;28;20436;-73
2023/09/07 09:24:49;;;;;;;0.00;0.00;;;35.30;42.10;;;;;;5032280;28;20026;-74
2023/09/07 09:27:14;;;;;;;0.00;0.00;;;35.60;42.60;;;;;;5042189;28;20582;-73
2023/09/07 09:29:40;;;;;;;;;;;35.40;42.70;;;;;;5042595;28;20025;-72
2023/09/07 09:32:10;;;;;;;0.00;0.00;;;35.10;42.60;;;;;;5040571;28;19939;-74
2023/09/07 09:34:37;;;;;;;0.00;0.00;;;35.60;42.00;;;;;;5041859;28;20060;-72
2023/09/07 09:37:03;;;;;;;0.00;0.00;;;36.90;41.50;;;;;;5040685;28;20075;-71
2023/09/07 09:39:29;;;;;;;0.00;0.00;;;36.40;41.20;;;;;;5042689;28;20029;-72
2023/09/07 09:41:55;;;;;;;;;;;36.80;40.30;;;;;;5042816;28;20047;-74
2023/09/07 09:44:26;;;;;;;0.00;0.00;;;36.20;42.10;;;;;;5052971;28;19909;-71
2023/09/07 09:46:56;;;;;;;0.00;0.00;;;37.40;41.00;;;;;;5040475;28;20021;-73
2023/09/07 09:49:22;;;;;;;0.00;0.00;;;36.30;41.20;;;;;;5042138;28;20029;-72
2023/09/07 09:51:51;;;;;;;0.00;0.00;;;37.70;40.80;;;;;;5042481;28;20025;-71
2023/09/07 09:54:18;;;;;;;0.00;0.00;;;37.50;38.20;;;;;;5042533;28;20037;-74
2023/09/07 09:56:44;;;;;;;0.00;0.00;;;37.70;39.40;;;;;;5042314;28;20025;-71
2023/09/07 09:59:11;;;;;;;0.00;0.00;;;37.60;38.20;;;;;;5042014;28;20029;-72
2023/09/07 10:01:46;;;;;;;0.00;0.00;;;37.50;37.80;;;;;;5042106;28;20036;-73
2023/09/07 10:04:17;;;;;;;0.03;0.03;;;37.90;37.10;;;;;;5041370;28;20396;-73
2023/09/07 10:07:01;;;;;;;0.00;0.00;;;37.10;38.50;;;;;;5043850;28;20252;-72
2023/09/07 10:09:34;;;;;;;0.00;0.00;;;35.90;38.00;;;;;;5045925;28;20606;-72
2023/09/07 10:12:03;;;;;;;0.00;0.00;;;34.50;37.90;;;;;;5045386;28;20025;-73
2023/09/07 10:14:39;;;;;;;0.00;0.00;;;33.70;37.40;;;;;;5050920;28;20694;-72
2023/09/07 10:17:05;;;;;;;0.00;0.00;;;33.60;39.10;;;;;;5046308;28;20033;-72
2023/09/07 10:19:31;;;;;;;0.00;0.00;;;33.30;39.30;;;;;;5045852;28;20107;-73
2023/09/07 10:21:57;;;;;;;0.00;0.00;;;31.60;39.50;;;;;;5049448;28;20033;-73
2023/09/07 10:24:37;;;;;;;0.00;0.00;;;32.10;40.40;;;;;;5036367;28;20850;-73
2023/09/07 10:27:07;;;;;;;0.00;0.00;;;32.30;39.80;;;;;;5045365;28;20036;-71
2023/09/07 10:29:46;;;;;;;0.00;0.00;;;31.90;41.50;;;;;;5044535;28;20029;-72
2023/09/07 10:32:14;;;;;;;0.00;0.00;;;32.20;40.10;;;;;;5046078;28;20722;-72
2023/09/07 10:34:43;;;;;;;0.00;0.00;;;31.50;40.60;;;;;;5043732;28;20417;-71
2023/09/07 10:37:13;;;;;;;0.00;0.00;;;31.30;39.50;;;;;;5045987;28;20029;-75
2023/09/07 10:39:43;;;;;;;0.00;0.00;;;31.40;40.90;;;;;;5045499;28;20078;-72
2023/09/07 10:42:23;;;;;;;0.00;0.00;;;31.70;40.30;;;;;;5045073;28;20040;-74
2023/09/07 10:44:49;;;;;;;0.00;0.00;;;31.20;40.60;;;;;;5045256;28;20033;-74
2023/09/07 10:47:15;;;;;;;0.00;0.00;;;30.80;39.90;;;;;;5044055;28;20037;-73
2023/09/07 10:49:41;;;;;;;0.00;0.00;;;30.70;40.00;;;;;;5045523;28;20063;-73
2023/09/07 10:52:07;;;;;;;0.00;0.00;;;30.70;40.00;;;;;;5043900;28;20033;-73
2023/09/07 10:54:32;;;;;;;0.00;0.00;;;31.10;42.00;;;;;;5045245;28;20052;-71
2023/09/07 10:57:08;;;;;;;0.00;0.00;;;31.30;41.20;;;;;;5043812;28;20112;-72
2023/09/07 10:59:33;;;;;;;0.00;0.00;;;31.30;40.20;;;;;;5045090;28;20033;-72
2023/09/07 11:02:05;;;;;;;0.00;0.00;;;31.20;41.10;;;;;;5044458;28;20037;-72
2023/09/07 11:04:31;;;;;;;0.00;0.00;;;31.20;41.50;;;;;;5043588;28;20479;-72
2023/09/07 11:06:57;;;;;;;0.00;0.00;;;31.10;40.60;;;;;;5044684;28;20036;-72
2023/09/07 11:09:23;;;;;;;0.00;0.00;;;31.00;40.90;;;;;;5044805;28;20029;-71
2023/09/07 11:11:49;;;;;;;0.00;0.00;;;31.00;40.80;;;;;;5045120;28;20703;-72
2023/09/07 11:14:14;;;;;;;0.00;0.00;;;30.70;40.50;;;;;;5044726;28;20064;-73
2023/09/07 11:16:40;;;;;;;0.00;0.00;;;30.60;40.80;;;;;;5044717;28;20570;-72
2023/09/07 11:19:08;;;;;;;0.00;0.00;;;30.50;40.00;;;;;;5043714;28;20029;-73
2023/09/07 11:21:36;;;;;;;0.00;0.00;;;30.60;42.30;;;;;;5045095;28;20040;-72
2023/09/07 11:24:05;;;;;;;0.00;0.00;;;30.70;40.00;;;;;;5039852;28;20033;-72
2023/09/07 11:26:47;;;;;;;0.00;0.00;;;30.50;39.50;;;;;;5040026;28;20067;-72
2023/09/07 11:29:17;;;;;;;0.30;0.25;;;30.30;39.80;;;;;;5035065;28;20064;-72
2023/09/07 11:31:44;;;;;;;0.00;0.00;;;30.20;39.70;;;;;;5044787;28;20037;-71
2023/09/07 11:34:13;;;;;;;0.00;0.00;;;30.10;40.40;;;;;;5035070;28;20045;-74
2023/09/07 11:36:46;;;;;;;0.00;0.00;;;30.10;40.00;;;;;;5044431;28;20041;-72
2023/09/07 11:39:14;;;;;;;0.00;0.00;;;29.90;40.90;;;;;;5035806;28;20030;-72
2023/09/07 11:41:42;;;;;;;0.00;0.00;;;30.10;41.00;;;;;;5043635;28;20416;-72
2023/09/07 11:44:08;;;;;;;0.00;0.00;;;30.20;40.90;;;;;;5044190;28;20033;-72
2023/09/07 11:46:34;;;;;;;;;;;30.10;41.60;;;;;;5044218;28;20095;-72
2023/09/07 11:49:00;;;;;;;0.00;0.00;;;30.00;41.50;;;;;;5033982;28;19912;-74
2023/09/07 11:51:25;;;;;;;0.00;0.00;;;30.00;41.30;;;;;;5044399;28;20028;-71
2023/09/07 11:53:51;;;;;;;0.00;0.00;;;30.00;41.70;;;;;;5043976;28;20033;-72
2023/09/07 11:56:17;;;;;;;0.00;0.00;;;30.10;42.00;;;;;;5043690;28;21328;-71
2023/09/07 11:58:43;;;;;;;0.00;0.00;;;30.10;44.70;;;;;;5044572;28;20404;-72
2023/09/07 12:01:09;;;;;;;0.03;0.03;;;30.00;42.40;;;;;;5043002;28;20044;-72
2023/09/07 12:03:35;;;;;;;0.00;0.00;;;30.00;41.50;;;;;;5044355;28;20033;-74
2023/09/07 12:06:01;;;;;;;0.00;0.00;;;29.90;41.80;;;;;;5043670;28;20029;-72
2023/09/07 12:08:26;;;;;;;0.00;0.00;;;29.90;43.60;;;;;;5044111;28;20029;-72
2023/09/07 12:10:52;;;;;;;0.00;0.00;;;29.80;44.00;;;;;;5041808;28;21180;-72
2023/09/07 12:13:18;;;;;;;0.00;0.00;;;29.90;43.90;;;;;;5044150;28;20033;-71
2023/09/07 12:15:43;;;;;;;0.00;0.00;;;29.90;40.80;;;;;;5043499;28;20033;-72
2023/09/07 12:18:09;;;;;;;0.00;0.00;;;29.90;41.70;;;;;;5042035;28;20111;-72
2023/09/07 12:20:35;;;;;;;0.00;0.00;;;29.90;43.00;;;;;;5042982;28;20045;-72
2023/09/07 12:23:02;;;;;;;0.00;0.00;;;29.90;41.40;;;;;;5043881;28;20028;-72
2023/09/07 12:25:27;;;;;;;;;;;29.90;42.10;;;;;;5033425;28;20028;-72
2023/09/07 12:27:53;;;;;;;0.00;0.00;;;29.90;42.10;;;;;;5042862;28;19908;-72
2023/09/07 12:30:20;;;;;;;0.00;0.00;;;29.80;42.20;;;;;;5043484;28;20021;-72
2023/09/07 12:32:46;;;;;;;0.00;0.00;;;29.80;42.70;;;;;;5042568;28;20120;-73
2023/09/07 12:35:12;;;;;;;;;;;29.80;41.30;;;;;;5042790;28;20106;-72
2023/09/07 12:37:38;;;;;;;0.00;0.00;;;29.80;41.30;;;;;;5042614;28;19909;-72
2023/09/07 12:40:13;;;;;;;0.00;0.00;;;29.90;42.10;;;;;;5054210;28;20042;-72
2023/09/07 12:42:43;;;;;;;0.00;0.00;;;29.90;41.70;;;;;;5042952;28;20037;-72
2023/09/07 12:45:10;;;;;;;0.00;0.00;;;29.80;41.40;;;;;;5043013;28;20087;-74
2023/09/07 12:47:36;;;;;;;0.00;0.00;;;29.80;43.30;;;;;;5043100;28;20025;-73